Time;durP1;ratioP1;P1;durP2;ratioP2;P2;SDS_P1;SDS_P2;PMS_P1;PMS_P2;Temp;Humidity;BMP_temperature;BMP_pressure;BME280_temperature;BME280_humidity;BME280_pressure;Samples;Min_cycle;Max_cycle;Signal;HPM_P1;HPM_P2
2021/05/11 00:00:39;;;;;;;;;;;;;;;;;;5095451;28;19927;-66
2021/05/11 00:03:05;;;;;;;;;;;;;;;;;;5090291;28;19923;-66
2021/05/11 00:05:31;;;;;;;;;;;;;;;;;;5091370;28;19908;-66
2021/05/11 00:07:57;;;;;;;;;;;;;;;;;;5085537;28;19915;-66
2021/05/11 00:10:23;;;;;;;;;;;;;;;;;;5078141;28;19913;-66
2021/05/11 00:12:49;;;;;;;;;;;;;;;;;;5074936;28;19908;-66
2021/05/11 00:15:15;;;;;;;;;;;;;;;;;;5095802;28;19907;-66
2021/05/11 00:17:42;;;;;;;;;;;;;;;;;;5083010;28;19908;-65
2021/05/11 00:20:08;;;;;;;;;;;;;;;;;;5087676;28;19924;-64
2021/05/11 00:22:34;;;;;;;;;;;;;;;;;;5101278;28;19916;-65
2021/05/11 00:25:00;;;;;;;;;;;;;;;;;;5093054;28;20366;-66
2021/05/11 00:27:26;;;;;;;;;;;;;;;;;;5088570;28;19915;-65
2021/05/11 00:29:51;;;;;;;;;;;;;;;;;;5102745;28;19914;-66
2021/05/11 00:32:17;;;;;;;;;;;;;;;;;;5082282;28;20351;-65
2021/05/11 00:34:43;;;;;;;;;;;;;;;;;;5087002;28;19912;-65
2021/05/11 00:37:09;;;;;;;;;;;;;;;;;;5085775;28;19908;-66
2021/05/11 00:39:35;;;;;;;;;;;;;;;;;;5101908;28;19908;-65
2021/05/11 00:42:01;;;;;;;;;;;;;;;;;;5075052;28;19944;-66
2021/05/11 00:44:27;;;;;;;;;;;;;;;;;;5087131;28;20317;-65
2021/05/11 00:47:01;;;;;;;;;;;;;;;;;;5094939;28;20065;-65
2021/05/11 00:49:28;;;;;;;;;;;;;;;;;;5096241;28;19907;-65
2021/05/11 00:51:54;;;;;;;;;;;;;;;;;;5083421;28;19915;-64
2021/05/11 00:54:20;;;;;;;;;;;;;;;;;;5078586;28;19908;-64
2021/05/11 00:56:46;;;;;;;;;;;;;;;;;;5091734;28;19908;-65
2021/05/11 00:59:17;;;;;;;;;;;;;;;;;;5091501;28;19908;-66
2021/05/11 01:01:43;;;;;;;;;;;;;;;;;;5077506;28;19908;-65
2021/05/11 01:04:09;;;;;;;;;;;;;;;;;;5087417;28;20332;-64
2021/05/11 01:06:34;;;;;;;;;;;;;;;;;;5088474;28;19908;-65
2021/05/11 01:09:00;;;;;;;;;;;;;;;;;;5082199;28;20252;-65
2021/05/11 01:11:26;;;;;;;;;;;;;;;;;;5092978;28;19912;-65
2021/05/11 01:13:52;;;;;;;;;;;;;;;;;;5079273;28;19923;-65
2021/05/11 01:16:18;;;;;;;;;;;;;;;;;;5080655;28;19951;-65
2021/05/11 01:18:44;;;;;;;;;;;;;;;;;;5085657;28;19907;-66
2021/05/11 01:24:06;;;;;;;;;;;;;;;;;;5070841;28;19970;-66
2021/05/11 01:26:52;;;;;;;;;;;;;;;;;;5081545;28;19908;-65
2021/05/11 01:32:33;;;;;;;;;;;;;;;;;;5084440;28;19957;-66
2021/05/11 01:49:02;;;;;;;;;;;;;;;;;;5079519;28;20007;-67
2021/05/11 01:52:25;;;;;;;;;;;;;;;;;;5089095;28;19907;-65
2021/05/11 01:55:08;;;;;;;;;;;;;;;;;;5085749;28;19961;-65
2021/05/11 02:24:26;;;;;;;;;;;;;;;;;;5078910;28;19918;-66
2021/05/11 02:26:52;;;;;;;;;;;;;;;;;;5104448;28;20347;-64
2021/05/11 02:29:18;;;;;;;;;;;;;;;;;;5084475;28;20374;-66
2021/05/11 02:31:44;;;;;;;;;;;;;;;;;;5084689;28;20359;-66
2021/05/11 02:34:10;;;;;;;;;;;;;;;;;;5085141;28;19914;-66
2021/05/11 02:36:36;;;;;;;;;;;;;;;;;;5082676;28;19908;-65
2021/05/11 02:39:02;;;;;;;;;;;;;;;;;;5075788;28;19958;-65
2021/05/11 02:41:28;;;;;;;;;;;;;;;;;;5091621;28;20325;-65
2021/05/11 02:43:56;;;;;;;;;;;;;;;;;;5083389;28;19915;-65
2021/05/11 02:46:22;;;;;;;;;;;;;;;;;;5093242;28;19912;-65
2021/05/11 02:48:48;;;;;;;;;;;;;;;;;;5083451;28;20363;-65
2021/05/11 02:51:14;;;;;;;;;;;;;;;;;;5097616;28;19957;-63
2021/05/11 02:53:40;;;;;;;;;;;;;;;;;;5096561;28;20386;-65
2021/05/11 02:56:06;;;;;;;;;;;;;;;;;;5100427;28;19908;-65
2021/05/11 02:58:34;;;;;;;;;;;;;;;;;;5086267;28;20414;-65
2021/05/11 03:01:00;;;;;;;;;;;;;;;;;;5087785;28;19908;-66
2021/05/11 03:03:26;;;;;;;;;;;;;;;;;;5104726;28;19915;-65
2021/05/11 03:05:52;;;;;;;;;;;;;;;;;;5097592;28;19999;-66
2021/05/11 03:08:18;;;;;;;;;;;;;;;;;;5090413;28;19935;-65
2021/05/11 03:10:44;;;;;;;;;;;;;;;;;;5089142;28;19908;-65
2021/05/11 03:13:10;;;;;;;;;;;;;;;;;;5082351;28;19916;-66
2021/05/11 03:15:36;;;;;;;;;;;;;;;;;;5078394;28;19908;-65
2021/05/11 03:18:02;;;;;;;;;;;;;;;;;;5089975;28;19908;-65
2021/05/11 03:20:28;;;;;;;;;;;;;;;;;;5085436;28;19908;-64
2021/05/11 03:22:54;;;;;;;;;;;;;;;;;;5096440;28;19915;-65
2021/05/11 03:25:20;;;;;;;;;;;;;;;;;;5112505;28;19907;-65
2021/05/11 03:27:46;;;;;;;;;;;;;;;;;;5086849;28;19915;-65
2021/05/11 03:30:11;;;;;;;;;;;;;;;;;;5108316;28;19907;-63
2021/05/11 03:32:37;;;;;;;;;;;;;;;;;;5081459;28;19957;-63
2021/05/11 03:35:03;;;;;;;;;;;;;;;;;;5086533;28;20065;-65
2021/05/11 03:37:29;;;;;;;;;;;;;;;;;;5076784;28;19916;-64
2021/05/11 03:39:55;;;;;;;;;;;;;;;;;;5105116;28;20289;-65
2021/05/11 03:42:30;;;;;;;;;;;;;;;;;;5097492;28;20371;-64
2021/05/11 03:44:59;;;;;;;;;;;;;;;;;;5079794;28;20038;-64
2021/05/11 03:47:27;;;;;;;;;;;;;;;;;;5075594;28;20290;-64
2021/05/11 03:49:52;;;;;;;;;;;;;;;;;;5094844;28;19908;-65
2021/05/11 03:52:19;;;;;;;;;;;;;;;;;;5085306;28;20002;-64
2021/05/11 03:54:44;;;;;;;;;;;;;;;;;;5090823;28;20434;-64
2021/05/11 03:57:12;;;;;;;;;;;;;;;;;;5080890;28;19999;-65
2021/05/11 03:59:38;;;;;;;;;;;;;;;;;;5076494;28;20351;-64
2021/05/11 04:02:04;;;;;;;;;;;;;;;;;;5077148;28;19916;-65
2021/05/11 04:04:30;;;;;;;;;;;;;;;;;;5079469;28;19908;-65
2021/05/11 04:06:56;;;;;;;;;;;;;;;;;;5092490;28;19908;-67
2021/05/11 04:09:35;;;;;;;;;;;;;;;;;;5092854;28;19908;-64
2021/05/11 04:12:14;;;;;;;;;;;;;;;;;;5081415;28;19995;-65
2021/05/11 04:17:25;;;;;;;;;;;;;;;;;;5092553;28;20294;-65
2021/05/11 04:19:51;;;;;;;;;;;;;;;;;;5088961;28;19908;-64
2021/05/11 04:22:17;;;;;;;;;;;;;;;;;;5082054;28;19933;-64
2021/05/11 04:24:43;;;;;;;;;;;;;;;;;;5078212;28;20375;-64
2021/05/11 04:27:08;;;;;;;;;;;;;;;;;;5107753;28;20266;-66
2021/05/11 04:29:35;;;;;;;;;;;;;;;;;;5098765;28;20282;-64
2021/05/11 04:32:01;;;;;;;;;;;;;;;;;;5099035;28;19908;-65
2021/05/11 04:34:27;;;;;;;;;;;;;;;;;;5085279;28;19915;-64
2021/05/11 04:36:52;;;;;;;;;;;;;;;;;;5096097;28;19908;-64
2021/05/11 04:39:18;;;;;;;;;;;;;;;;;;5084983;28;20337;-64
2021/05/11 04:41:44;;;;;;;;;;;;;;;;;;5075308;28;20448;-64
2021/05/11 04:44:10;;;;;;;;;;;;;;;;;;5079144;28;19966;-65
2021/05/11 04:46:56;;;;;;;;;;;;;;;;;;5086710;28;20318;-65
2021/05/11 04:49:21;;;;;;;;;;;;;;;;;;5083940;28;19908;-64
2021/05/11 04:51:47;;;;;;;;;;;;;;;;;;5084527;28;20011;-64
2021/05/11 04:54:13;;;;;;;;;;;;;;;;;;5092828;28;19955;-65
2021/05/11 04:56:39;;;;;;;;;;;;;;;;;;5092428;28;20422;-65
2021/05/11 04:59:05;;;;;;;;;;;;;;;;;;5081910;28;19950;-65
2021/05/11 05:01:31;;;;;;;;;;;;;;;;;;5079671;28;20272;-63
2021/05/11 05:03:59;;;;;;;;;;;;;;;;;;5089323;28;20359;-65
2021/05/11 05:06:25;;;;;;;;;;;;;;;;;;5089073;28;19947;-65
2021/05/11 05:08:51;;;;;;;;;;;;;;;;;;5080730;28;19915;-64
2021/05/11 05:11:17;;;;;;;;;;;;;;;;;;5073326;28;20275;-65
2021/05/11 05:13:44;;;;;;;;;;;;;;;;;;5081061;28;19919;-64
2021/05/11 05:16:10;;;;;;;;;;;;;;;;;;5081723;28;19960;-65
2021/05/11 05:18:36;;;;;;;;;;;;;;;;;;5094156;28;19994;-64
2021/05/11 05:21:06;;;;;;;;;;;;;;;;;;5073141;28;20286;-64
2021/05/11 05:23:36;;;;;;;;;;;;;;;;;;5086333;28;19912;-64
2021/05/11 05:26:07;;;;;;;;;;;;;;;;;;5087117;28;19907;-65
2021/05/11 05:28:37;;;;;;;;;;;;;;;;;;5086144;28;20050;-65
2021/05/11 05:31:03;;;;;;;;;;;;;;;;;;5081447;28;19915;-64
2021/05/11 05:33:29;;;;;;;;;;;;;;;;;;5081239;28;20269;-64
2021/05/11 05:35:55;;;;;;;;;;;;;;;;;;5079362;28;19987;-64
2021/05/11 05:38:21;;;;;;;;;;;;;;;;;;5092400;28;20308;-65
2021/05/11 05:40:54;;;;;;;;;;;;;;;;;;5077543;28;19915;-65
2021/05/11 05:43:20;;;;;;;;;;;;;;;;;;5073219;28;19912;-65
2021/05/11 05:45:46;;;;;;;;;;;;;;;;;;5096762;28;20336;-64
2021/05/11 05:48:12;;;;;;;;;;;;;;;;;;5092511;28;19986;-65
2021/05/11 05:50:38;;;;;;;;;;;;;;;;;;5075172;28;19995;-66
2021/05/11 05:53:11;;;;;;;;;;;;;;;;;;5089788;28;20367;-65
2021/05/11 05:55:37;;;;;;;;;;;;;;;;;;5089725;28;19915;-64
2021/05/11 05:58:03;;;;;;;;;;;;;;;;;;5101698;28;20002;-65
2021/05/11 06:00:28;;;;;;;;;;;;;;;;;;5098261;28;20358;-64
2021/05/11 06:02:58;;;;;;;;;;;;;;;;;;5090023;28;19943;-65
2021/05/11 06:05:26;;;;;;;;;;;;;;;;;;5080719;28;19919;-65
2021/05/11 06:07:52;;;;;;;;;;;;;;;;;;5088632;28;20124;-65
2021/05/11 06:10:19;;;;;;;;;;;;;;;;;;5085868;28;19909;-65
2021/05/11 06:13:30;;;;;;;;;;;;;;;;;;5086780;28;19908;-64
2021/05/11 06:18:18;;;;;;;;;;;;;;;;;;5083180;28;20020;-63
2021/05/11 06:20:44;;;;;;;;;;;;;;;;;;5079413;28;20028;-65
2021/05/11 06:23:10;;;;;;;;;;;;;;;;;;5086611;28;19947;-65
2021/05/11 06:25:38;;;;;;;;;;;;;;;;;;5096333;28;19909;-65
2021/05/11 06:28:04;;;;;;;;;;;;;;;;;;5074759;28;19912;-64
2021/05/11 06:30:30;;;;;;;;;;;;;;;;;;5077982;28;21710;-65
2021/05/11 06:32:56;;;;;;;;;;;;;;;;;;5089676;28;19908;-64
2021/05/11 06:35:24;;;;;;;;;;;;;;;;;;5073892;28;19915;-66
2021/05/11 06:37:50;;;;;;;;;;;;;;;;;;5092150;28;19912;-65
2021/05/11 06:40:16;;;;;;;;;;;;;;;;;;5083838;28;20004;-65
2021/05/11 06:42:42;;;;;;;;;;;;;;;;;;5072041;28;19912;-65
2021/05/11 06:47:59;;;;;;;;;;;;;;;;;;5105352;28;19947;-66
2021/05/11 06:55:21;;;;;;;;;;;;;;;;;;5089492;28;19908;-65
2021/05/11 06:57:47;;;;;;;;;;;;;;;;;;5100580;28;20358;-63
2021/05/11 07:00:12;;;;;;;;;;;;;;;;;;5089617;28;19999;-66
2021/05/11 07:02:38;;;;;;;;;;;;;;;;;;5084907;28;19955;-64
2021/05/11 07:05:04;;;;;;;;;;;;;;;;;;5089196;28;19964;-64
2021/05/11 07:07:32;;;;;;;;;;;;;;;;;;5087554;28;19990;-65
2021/05/11 07:10:21;;;;;;;;;;;;;;;;;;5090213;28;20491;-65
2021/05/11 07:15:32;;;;;;;;;;;;;;;;;;5092370;28;20393;-64
2021/05/11 07:17:58;;;;;;;;;;;;;;;;;;5080770;28;19916;-65
2021/05/11 07:20:24;;;;;;;;;;;;;;;;;;5081871;28;19923;-66
2021/05/11 07:22:49;;;;;;;;;;;;;;;;;;5084836;28;19919;-65
2021/05/11 07:25:15;;;;;;;;;;;;;;;;;;5088858;28;19912;-64
2021/05/11 07:30:13;;;;;;;;;;;;;;;;;;5080875;28;19934;-64
2021/05/11 07:32:40;;;;;;;;;;;;;;;;;;5084312;28;20540;-64
2021/05/11 07:35:06;;;;;;;;;;;;;;;;;;5080223;28;20004;-64
2021/05/11 07:37:32;;;;;;;;;;;;;;;;;;5072139;28;19920;-65
2021/05/11 07:39:58;;;;;;;;;;;;;;;;;;5080944;28;19919;-65
2021/05/11 07:42:24;;;;;;;;;;;;;;;;;;5081964;28;19943;-64
2021/05/11 07:44:53;;;;;;;;;;;;;;;;;;5081591;28;20053;-65
2021/05/11 07:48:10;;;;;;;;;;;;;;;;;;5077494;28;20274;-65
2021/05/11 08:17:36;;;;;;;;;;;;;;;;;;5073063;28;19918;-65
2021/05/11 08:22:52;;;;;;;;;;;;;;;;;;5081099;28;20012;-65
2021/05/11 08:28:09;;;;;;;;;;;;;;;;;;5093414;28;19956;-66
2021/05/11 08:30:35;;;;;;;;;;;;;;;;;;5087416;28;19916;-66
2021/05/11 08:33:01;;;;;;;;;;;;;;;;;;5072221;28;19912;-65
2021/05/11 08:35:27;;;;;;;;;;;;;;;;;;5083525;28;19965;-65
2021/05/11 08:37:53;;;;;;;;;;;;;;;;;;5080668;28;19954;-67
2021/05/11 08:40:19;;;;;;;;;;;;;;;;;;5072004;28;20337;-66
2021/05/11 08:42:45;;;;;;;;;;;;;;;;;;5083927;28;19920;-66
2021/05/11 08:45:11;;;;;;;;;;;;;;;;;;5076696;28;19919;-66
2021/05/11 08:47:48;;;;;;;;;;;;;;;;;;5081309;28;20366;-65
2021/05/11 08:50:14;;;;;;;;;;;;;;;;;;5070950;28;19970;-66
2021/05/11 09:06:46;;;;;;;;;;;;;;;;;;5083058;28;20397;-65
2021/05/11 09:09:20;;;;;;;;;;;;;;;;;;5082567;28;21525;-65
2021/05/11 09:25:03;;;;;;;;;;;;;;;;;;5083450;28;20290;-65
2021/05/11 09:27:46;;;;;;;;;;;;;;;;;;5082891;28;19912;-66
2021/05/11 09:54:25;;;;;;;;;;;;;;;;;;5075600;28;19916;-66
2021/05/11 09:57:11;;;;;;;;;;;;;;;;;;5079142;28;19913;-67
2021/05/11 10:31:21;;;;;;;;;;;;;;;;;;5079445;28;20003;-67
2021/05/11 10:41:24;;;;;;;;;;;;;;;;;;5023537;28;19991;-67
2021/05/11 10:44:17;;;;;;;;;;;;;;;;;;5022305;28;20000;-65
2021/05/11 10:49:11;;;;;;;;;;;;;;;;;;5081741;28;19915;-66
2021/05/11 10:51:37;;;;;;;;;;;;;;;;;;5085309;28;19912;-67
2021/05/11 10:54:07;;;;;;;;;;;;;;;;;;5090941;28;20324;-66
2021/05/11 10:56:38;;;;;;;;;;;;;;;;;;5084294;28;20366;-65
2021/05/11 10:59:04;;;;;;;;;;;;;;;;;;5085104;28;20016;-65
2021/05/11 11:01:30;;;;;;;;;;;;;;;;;;5086097;28;19951;-65
2021/05/11 11:03:56;;;;;;;;;;;;;;;;;;5088041;28;19959;-65
2021/05/11 11:06:22;;;;;;;;;;;;;;;;;;5086590;28;19919;-65
2021/05/11 11:08:48;;;;;;;;;;;;;;;;;;5084214;28;19912;-65
2021/05/11 11:11:16;;;;;;;;;;;;;;;;;;5081129;28;19920;-64
2021/05/11 11:13:42;;;;;;;;;;;;;;;;;;5087689;28;19911;-66
2021/05/11 11:16:08;;;;;;;;;;;;;;;;;;5083833;28;19912;-66
2021/05/11 11:18:34;;;;;;;;;;;;;;;;;;5088878;28;20639;-66
2021/05/11 11:21:17;;;;;;;;;;;;;;;;;;5082639;28;19911;-65
2021/05/11 11:23:43;;;;;;;;;;;;;;;;;;5077955;28;19923;-67
2021/05/11 11:26:10;;;;;;;;;;;;;;;;;;5075148;28;19912;-63
2021/05/11 11:28:36;;;;;;;;;;;;;;;;;;5071996;28;19908;-66
2021/05/11 11:31:02;;;;;;;;;;;;;;;;;;5088969;28;19973;-65
2021/05/11 11:33:28;;;;;;;;;;;;;;;;;;5085177;28;19934;-65
2021/05/11 11:35:54;;;;;;;;;;;;;;;;;;5076870;28;19916;-65
2021/05/11 11:38:20;;;;;;;;;;;;;;;;;;5078417;28;19952;-65
2021/05/11 11:40:46;;;;;;;;;;;;;;;;;;5072287;28;19975;-66
2021/05/11 11:43:12;;;;;;;;;;;;;;;;;;5083593;28;19961;-65
2021/05/11 11:45:38;;;;;;;;;;;;;;;;;;5076794;28;19919;-67
2021/05/11 11:48:04;;;;;;;;;;;;;;;;;;5087960;28;19955;-68
2021/05/11 11:50:35;;;;;;;;;;;;;;;;;;5083435;28;19952;-66
2021/05/11 11:53:09;;;;;;;;;;;;;;;;;;5077517;28;20293;-66
2021/05/11 11:58:04;;;;;;;;;;;;;;;;;;5081021;28;20301;-66
2021/05/11 12:00:30;;;;;;;;;;;;;;;;;;5079143;28;19923;-66
2021/05/11 12:02:58;;;;;;;;;;;;;;;;;;5073903;28;20339;-66
2021/05/11 12:05:24;;;;;;;;;;;;;;;;;;5084105;28;19919;-67
2021/05/11 12:07:58;;;;;;;;;;;;;;;;;;5082488;28;19919;-66
2021/05/11 12:10:24;;;;;;;;;;;;;;;;;;5088437;28;19951;-67
2021/05/11 12:12:50;;;;;;;;;;;;;;;;;;5089013;28;20600;-65
2021/05/11 12:15:20;;;;;;;;;;;;;;;;;;5078692;28;19966;-67
2021/05/11 12:17:47;;;;;;;;;;;;;;;;;;5083258;28;19956;-66
2021/05/11 12:20:14;;;;;;;;;;;;;;;;;;5073002;28;19912;-65
2021/05/11 12:22:40;;;;;;;;;;;;;;;;;;5086974;28;20291;-66
2021/05/11 12:25:06;;;;;;;;;;;;;;;;;;5076655;28;19912;-68
2021/05/11 12:27:32;;;;;;;;;;;;;;;;;;5080764;28;19965;-66
2021/05/11 12:29:58;;;;;;;;;;;;;;;;;;5071277;28;20017;-66
2021/05/11 12:32:24;;;;;;;;;;;;;;;;;;5085764;28;20473;-67
2021/05/11 12:34:49;;;;;;;;;;;;;;;;;;5070869;28;19913;-66
2021/05/11 12:37:15;;;;;;;;;;;;;;;;;;5081408;28;19912;-66
2021/05/11 12:40:02;;;;;;;;;;;;;;;;;;5079992;28;20022;-67
2021/05/11 12:42:30;;;;;;;;;;;;;;;;;;5080820;28;19915;-65
2021/05/11 12:44:56;;;;;;;;;;;;;;;;;;5077031;28;20558;-67
2021/05/11 12:47:22;;;;;;;;;;;;;;;;;;5082645;28;19999;-66
2021/05/11 12:49:54;;;;;;;;;;;;;;;;;;5075633;28;19944;-68
2021/05/11 12:52:20;;;;;;;;;;;;;;;;;;5080983;28;19912;-67
2021/05/11 12:54:48;;;;;;;;;;;;;;;;;;5090820;28;19912;-66
2021/05/11 12:57:20;;;;;;;;;;;;;;;;;;5090665;28;20386;-65
2021/05/11 13:28:26;;;;;;;;;;;;;;;;;;5070260;28;19912;-68
2021/05/11 13:30:54;;;;;;;;;;;;;;;;;;5074180;28;19912;-66
2021/05/11 13:33:31;;;;;;;;;;;;;;;;;;5073176;28;20431;-66
2021/05/11 13:35:57;;;;;;;;;;;;;;;;;;5076827;28;20263;-66
2021/05/11 13:38:23;;;;;;;;;;;;;;;;;;5063722;28;19912;-66
2021/05/11 13:40:48;;;;;;;;;;;;;;;;;;5089236;28;19957;-67
2021/05/11 13:43:14;;;;;;;;;;;;;;;;;;5085656;28;19930;-67
2021/05/11 13:45:40;;;;;;;;;;;;;;;;;;5079611;28;19918;-66
2021/05/11 13:48:12;;;;;;;;;;;;;;;;;;5082388;28;19908;-65
2021/05/11 13:50:58;;;;;;;;;;;;;;;;;;5080623;28;20003;-67
2021/05/11 13:53:28;;;;;;;;;;;;;;;;;;5088639;28;19919;-68
2021/05/11 14:03:52;;;;;;;;;;;;;;;;;;5086942;28;20008;-70
2021/05/11 14:06:18;;;;;;;;;;;;;;;;;;5081108;28;19916;-67
2021/05/11 14:08:44;;;;;;;;;;;;;;;;;;5080586;28;19981;-70
2021/05/11 14:11:10;;;;;;;;;;;;;;;;;;5083145;28;19951;-69
2021/05/11 14:13:36;;;;;;;;;;;;;;;;;;5085831;28;19915;-68
2021/05/11 14:16:01;;;;;;;;;;;;;;;;;;5085563;28;20378;-69
2021/05/11 14:18:27;;;;;;;;;;;;;;;;;;5074558;28;19916;-68
2021/05/11 14:20:53;;;;;;;;;;;;;;;;;;5079621;28;20032;-66
2021/05/11 14:23:19;;;;;;;;;;;;;;;;;;5087762;28;20048;-66
2021/05/11 14:25:45;;;;;;;;;;;;;;;;;;5090163;28;19916;-66
2021/05/11 14:28:11;;;;;;;;;;;;;;;;;;5081119;28;19913;-68
2021/05/11 14:30:37;;;;;;;;;;;;;;;;;;5088849;28;19942;-66
2021/05/11 14:33:03;;;;;;;;;;;;;;;;;;5087914;28;19919;-66
2021/05/11 14:35:29;;;;;;;;;;;;;;;;;;5092808;28;20585;-67
2021/05/11 14:37:55;;;;;;;;;;;;;;;;;;5087161;28;20050;-67
2021/05/11 14:40:21;;;;;;;;;;;;;;;;;;5085378;28;19919;-66
2021/05/11 14:42:47;;;;;;;;;;;;;;;;;;5083616;28;20401;-67
2021/05/11 14:45:13;;;;;;;;;;;;;;;;;;5085559;28;20479;-66
2021/05/11 14:47:45;;;;;;;;;;;;;;;;;;5086348;28;19916;-66
2021/05/11 14:50:11;;;;;;;;;;;;;;;;;;5086572;28;19989;-66
2021/05/11 14:52:36;;;;;;;;;;;;;;;;;;5084984;28;19947;-67
2021/05/11 14:55:02;;;;;;;;;;;;;;;;;;5090692;28;19980;-66
2021/05/11 14:57:29;;;;;;;;;;;;;;;;;;5093007;28;20369;-67
2021/05/11 14:59:55;;;;;;;;;;;;;;;;;;5080678;28;19908;-67
2021/05/11 15:02:21;;;;;;;;;;;;;;;;;;5079929;28;19923;-68
2021/05/11 15:04:47;;;;;;;;;;;;;;;;;;5078091;28;19913;-68
2021/05/11 15:07:13;;;;;;;;;;;;;;;;;;5085517;28;19916;-68
2021/05/11 15:09:39;;;;;;;;;;;;;;;;;;5083714;28;20014;-68
2021/05/11 15:12:05;;;;;;;;;;;;;;;;;;5090154;28;19954;-68
2021/05/11 15:14:31;;;;;;;;;;;;;;;;;;5077001;28;21705;-68
2021/05/11 15:19:41;;;;;;;;;;;;;;;;;;5072005;28;19938;-68
2021/05/11 15:22:07;;;;;;;;;;;;;;;;;;5079528;28;20438;-67
2021/05/11 15:24:34;;;;;;;;;;;;;;;;;;5078010;28;20418;-68
2021/05/11 15:27:00;;;;;;;;;;;;;;;;;;5084847;28;19919;-67
2021/05/11 15:29:26;;;;;;;;;;;;;;;;;;5091423;28;20354;-67
2021/05/11 15:31:52;;;;;;;;;;;;;;;;;;5073575;28;19919;-67
2021/05/11 15:34:17;;;;;;;;;;;;;;;;;;5073341;28;19943;-67
2021/05/11 15:36:43;;;;;;;;;;;;;;;;;;5073567;28;19923;-68
2021/05/11 15:39:09;;;;;;;;;;;;;;;;;;5067931;28;19920;-68
2021/05/11 15:41:35;;;;;;;;;;;;;;;;;;5080799;28;19912;-69
2021/05/11 15:44:01;;;;;;;;;;;;;;;;;;5074229;28;20366;-69
2021/05/11 15:46:27;;;;;;;;;;;;;;;;;;5082419;28;20459;-69
2021/05/11 15:48:53;;;;;;;;;;;;;;;;;;5082127;28;20723;-68
2021/05/11 15:51:19;;;;;;;;;;;;;;;;;;5081587;28;19912;-68
2021/05/11 15:53:45;;;;;;;;;;;;;;;;;;5082210;28;20021;-67
2021/05/11 15:56:11;;;;;;;;;;;;;;;;;;5088855;28;20568;-67
2021/05/11 15:58:37;;;;;;;;;;;;;;;;;;5086417;28;19955;-67
2021/05/11 16:01:03;;;;;;;;;;;;;;;;;;5081979;28;19912;-68
2021/05/11 16:03:29;;;;;;;;;;;;;;;;;;5075215;28;20316;-69
2021/05/11 16:05:55;;;;;;;;;;;;;;;;;;5082963;28;19923;-68
2021/05/11 16:08:21;;;;;;;;;;;;;;;;;;5078207;28;19912;-68
2021/05/11 16:10:47;;;;;;;;;;;;;;;;;;5085704;28;20364;-66
2021/05/11 16:13:13;;;;;;;;;;;;;;;;;;5092651;28;19918;-67
2021/05/11 16:15:39;;;;;;;;;;;;;;;;;;5097657;28;19912;-66
2021/05/11 16:18:05;;;;;;;;;;;;;;;;;;5091886;28;19922;-66
2021/05/11 16:20:31;;;;;;;;;;;;;;;;;;5085781;28;19912;-68
2021/05/11 16:22:57;;;;;;;;;;;;;;;;;;5075132;28;19985;-67
2021/05/11 16:25:23;;;;;;;;;;;;;;;;;;5070047;28;19912;-67
2021/05/11 16:27:49;;;;;;;;;;;;;;;;;;5090589;28;20260;-67
2021/05/11 16:30:15;;;;;;;;;;;;;;;;;;5080937;28;19916;-66
2021/05/11 16:32:41;;;;;;;;;;;;;;;;;;5083061;28;19961;-67
2021/05/11 16:35:07;;;;;;;;;;;;;;;;;;5073687;28;19912;-67
2021/05/11 16:37:33;;;;;;;;;;;;;;;;;;5073531;28;19912;-66
2021/05/11 16:39:59;;;;;;;;;;;;;;;;;;5071299;28;19980;-66
2021/05/11 16:42:24;;;;;;;;;;;;;;;;;;5094550;28;19916;-67
2021/05/11 16:44:50;;;;;;;;;;;;;;;;;;5078472;28;19916;-66
2021/05/11 16:47:16;;;;;;;;;;;;;;;;;;5084012;28;19981;-66
2021/05/11 16:49:42;;;;;;;;;;;;;;;;;;5082804;28;19918;-66
2021/05/11 16:52:08;;;;;;;;;;;;;;;;;;5082586;28;20437;-66
2021/05/11 16:54:34;;;;;;;;;;;;;;;;;;5089280;28;19916;-66
2021/05/11 16:57:00;;;;;;;;;;;;;;;;;;5074287;28;19913;-66
2021/05/11 16:59:26;;;;;;;;;;;;;;;;;;5070144;28;19916;-65
2021/05/11 17:01:52;;;;;;;;;;;;;;;;;;5098691;28;19912;-66
2021/05/11 17:04:18;;;;;;;;;;;;;;;;;;5082922;28;19916;-66
2021/05/11 17:06:44;;;;;;;;;;;;;;;;;;5087205;28;19923;-67
2021/05/11 17:09:10;;;;;;;;;;;;;;;;;;5088048;28;19965;-65
2021/05/11 17:11:36;;;;;;;;;;;;;;;;;;5076857;28;19916;-65
2021/05/11 17:14:02;;;;;;;;;;;;;;;;;;5080851;28;19920;-66
2021/05/11 17:16:28;;;;;;;;;;;;;;;;;;5082623;28;19999;-66
2021/05/11 17:18:54;;;;;;;;;;;;;;;;;;5077499;28;20378;-66
2021/05/11 17:21:20;;;;;;;;;;;;;;;;;;5074995;28;19969;-67
2021/05/11 17:23:46;;;;;;;;;;;;;;;;;;5075907;28;20392;-66
2021/05/11 17:26:12;;;;;;;;;;;;;;;;;;5082020;28;19916;-65
2021/05/11 17:28:39;;;;;;;;;;;;;;;;;;5087815;28;19912;-68
2021/05/11 17:31:05;;;;;;;;;;;;;;;;;;5069882;28;19919;-67
2021/05/11 17:33:31;;;;;;;;;;;;;;;;;;5082827;28;19913;-65
2021/05/11 17:35:57;;;;;;;;;;;;;;;;;;5090962;28;19912;-66
2021/05/11 17:38:24;;;;;;;;;;;;;;;;;;5074697;28;19911;-67
2021/05/11 17:40:50;;;;;;;;;;;;;;;;;;5076199;28;19916;-65
2021/05/11 17:43:16;;;;;;;;;;;;;;;;;;5079849;28;19916;-66
2021/05/11 17:45:42;;;;;;;;;;;;;;;;;;5084344;28;20058;-66
2021/05/11 17:48:08;;;;;;;;;;;;;;;;;;5071392;28;20290;-67
2021/05/11 17:50:34;;;;;;;;;;;;;;;;;;5084603;28;19916;-67
2021/05/11 17:53:00;;;;;;;;;;;;;;;;;;5075788;28;19912;-66
2021/05/11 17:55:26;;;;;;;;;;;;;;;;;;5081332;28;19919;-65
2021/05/11 17:57:52;;;;;;;;;;;;;;;;;;5078436;28;19912;-66
2021/05/11 18:00:18;;;;;;;;;;;;;;;;;;5068861;28;19918;-66
2021/05/11 18:02:44;;;;;;;;;;;;;;;;;;5074616;28;19934;-66
2021/05/11 18:05:11;;;;;;;;;;;;;;;;;;5072834;28;19924;-66
2021/05/11 18:07:37;;;;;;;;;;;;;;;;;;5076269;28;20002;-66
2021/05/11 18:10:03;;;;;;;;;;;;;;;;;;5085414;28;19999;-66
2021/05/11 18:12:29;;;;;;;;;;;;;;;;;;5069464;28;19998;-66
2021/05/11 18:14:55;;;;;;;;;;;;;;;;;;5081570;28;19948;-65
2021/05/11 18:17:22;;;;;;;;;;;;;;;;;;5083221;28;20511;-65
2021/05/11 18:19:48;;;;;;;;;;;;;;;;;;5078014;28;20007;-65
2021/05/11 18:22:14;;;;;;;;;;;;;;;;;;5076316;28;20686;-66
2021/05/11 18:24:40;;;;;;;;;;;;;;;;;;5071000;28;20293;-65
2021/05/11 18:27:06;;;;;;;;;;;;;;;;;;5070032;28;20251;-66
2021/05/11 18:29:32;;;;;;;;;;;;;;;;;;5068945;28;20358;-65
2021/05/11 18:31:58;;;;;;;;;;;;;;;;;;5069117;28;19913;-66
2021/05/11 18:34:24;;;;;;;;;;;;;;;;;;5093348;28;19965;-66
2021/05/11 18:39:31;;;;;;;;;;;;;;;;;;5075752;28;19965;-65
2021/05/11 18:41:57;;;;;;;;;;;;;;;;;;5079578;28;19912;-64
2021/05/11 18:44:23;;;;;;;;;;;;;;;;;;5069742;28;19926;-66
2021/05/11 18:46:49;;;;;;;;;;;;;;;;;;5070199;28;19912;-65
2021/05/11 18:49:15;;;;;;;;;;;;;;;;;;5069230;28;19924;-65
2021/05/11 18:51:40;;;;;;;;;;;;;;;;;;5068842;28;20350;-65
2021/05/11 18:54:06;;;;;;;;;;;;;;;;;;5073767;28;20401;-65
2021/05/11 18:56:32;;;;;;;;;;;;;;;;;;5077384;28;19913;-64
2021/05/11 18:58:58;;;;;;;;;;;;;;;;;;5068714;28;20007;-66
2021/05/11 19:01:24;;;;;;;;;;;;;;;;;;5076214;28;19927;-65
2021/05/11 19:03:50;;;;;;;;;;;;;;;;;;5087485;28;19959;-65
2021/05/11 19:06:16;;;;;;;;;;;;;;;;;;5080075;28;19998;-65
2021/05/11 19:08:42;;;;;;;;;;;;;;;;;;5077994;28;19951;-65
2021/05/11 19:11:08;;;;;;;;;;;;;;;;;;5084679;28;19912;-66
2021/05/11 19:13:34;;;;;;;;;;;;;;;;;;5085352;28;19915;-64
2021/05/11 19:16:08;;;;;;;;;;;;;;;;;;5095759;28;19935;-64
2021/05/11 19:18:34;;;;;;;;;;;;;;;;;;5083457;28;20362;-64
2021/05/11 19:21:00;;;;;;;;;;;;;;;;;;5077264;28;19920;-66
2021/05/11 19:23:30;;;;;;;;;;;;;;;;;;5072214;28;19965;-65
2021/05/11 19:25:56;;;;;;;;;;;;;;;;;;5074462;28;19912;-65
2021/05/11 19:28:22;;;;;;;;;;;;;;;;;;5083922;28;19935;-65
2021/05/11 19:30:48;;;;;;;;;;;;;;;;;;5072741;28;19912;-65
2021/05/11 19:33:14;;;;;;;;;;;;;;;;;;5096746;28;19916;-66
2021/05/11 19:35:41;;;;;;;;;;;;;;;;;;5080099;28;19912;-66
2021/05/11 19:38:07;;;;;;;;;;;;;;;;;;5078401;28;20640;-66
2021/05/11 19:40:33;;;;;;;;;;;;;;;;;;5087027;28;20354;-67
2021/05/11 19:42:59;;;;;;;;;;;;;;;;;;5090019;28;20387;-65
2021/05/11 19:45:25;;;;;;;;;;;;;;;;;;5076083;28;19919;-65
2021/05/11 19:47:51;;;;;;;;;;;;;;;;;;5076076;28;19912;-66
2021/05/11 19:50:17;;;;;;;;;;;;;;;;;;5070371;28;19915;-66
2021/05/11 19:52:43;;;;;;;;;;;;;;;;;;5073291;28;20015;-66
2021/05/11 19:55:09;;;;;;;;;;;;;;;;;;5071309;28;20351;-66
2021/05/11 19:57:35;;;;;;;;;;;;;;;;;;5084788;28;19913;-67
2021/05/11 20:00:01;;;;;;;;;;;;;;;;;;5091429;28;20426;-65
2021/05/11 20:02:27;;;;;;;;;;;;;;;;;;5090401;28;19916;-66
2021/05/11 20:04:53;;;;;;;;;;;;;;;;;;5077290;28;20552;-66
2021/05/11 20:07:19;;;;;;;;;;;;;;;;;;5073686;28;19912;-66
2021/05/11 20:09:45;;;;;;;;;;;;;;;;;;5096489;28;19916;-67
2021/05/11 20:12:11;;;;;;;;;;;;;;;;;;5079062;28;19919;-66
2021/05/11 20:14:37;;;;;;;;;;;;;;;;;;5087022;28;19911;-66
2021/05/11 20:17:03;;;;;;;;;;;;;;;;;;5081394;28;20369;-66
2021/05/11 20:19:29;;;;;;;;;;;;;;;;;;5096663;28;20343;-67
2021/05/11 20:21:55;;;;;;;;;;;;;;;;;;5071940;28;20586;-67
2021/05/11 20:24:21;;;;;;;;;;;;;;;;;;5073501;28;20003;-67
2021/05/11 20:26:47;;;;;;;;;;;;;;;;;;5074854;28;19950;-67
2021/05/11 20:29:13;;;;;;;;;;;;;;;;;;5095248;28;19915;-66
2021/05/11 20:31:39;;;;;;;;;;;;;;;;;;5079818;28;19931;-66
2021/05/11 20:34:08;;;;;;;;;;;;;;;;;;5074263;28;20294;-67
2021/05/11 20:36:35;;;;;;;;;;;;;;;;;;5093851;28;20379;-66
2021/05/11 20:39:01;;;;;;;;;;;;;;;;;;5078515;28;19924;-67
2021/05/11 20:41:27;;;;;;;;;;;;;;;;;;5098700;28;19912;-67